sensor_id;sensor_type;location;lat;lon;timestamp;P1;durP1;ratioP1;P2;durP2;ratioP2
23702;SDS011;12030;50.376;8.762;2023-02-10T00:01:13;28.63;;;16.60;;
23702;SDS011;12030;50.376;8.762;2023-02-10T00:03:44;32.47;;;19.87;;
23702;SDS011;12030;50.376;8.762;2023-02-10T00:06:10;30.43;;;18.67;;
23702;SDS011;12030;50.376;8.762;2023-02-10T00:08:37;27.77;;;17.33;;
23702;SDS011;12030;50.376;8.762;2023-02-10T00:11:04;27.07;;;17.17;;
23702;SDS011;12030;50.376;8.762;2023-02-10T00:13:32;26.07;;;15.97;;
23702;SDS011;12030;50.376;8.762;2023-02-10T00:15:59;25.43;;;16.53;;
23702;SDS011;12030;50.376;8.762;2023-02-10T00:18:26;25.77;;;16.17;;
23702;SDS011;12030;50.376;8.762;2023-02-10T00:20:52;25.40;;;16.47;;
23702;SDS011;12030;50.376;8.762;2023-02-10T00:23:17;26.53;;;17.00;;
23702;SDS011;12030;50.376;8.762;2023-02-10T00:25:43;30.90;;;18.00;;
23702;SDS011;12030;50.376;8.762;2023-02-10T00:28:08;25.10;;;16.93;;
23702;SDS011;12030;50.376;8.762;2023-02-10T00:30:34;23.13;;;15.60;;
23702;SDS011;12030;50.376;8.762;2023-02-10T00:33:01;23.13;;;15.10;;
23702;SDS011;12030;50.376;8.762;2023-02-10T00:35:26;25.23;;;15.50;;
23702;SDS011;12030;50.376;8.762;2023-02-10T00:37:52;24.90;;;14.97;;
23702;SDS011;12030;50.376;8.762;2023-02-10T00:40:17;27.40;;;15.17;;
23702;SDS011;12030;50.376;8.762;2023-02-10T00:42:43;23.87;;;15.40;;
23702;SDS011;12030;50.376;8.762;2023-02-10T00:45:08;25.13;;;15.87;;
23702;SDS011;12030;50.376;8.762;2023-02-10T00:47:34;31.07;;;15.80;;
23702;SDS011;12030;50.376;8.762;2023-02-10T00:50:00;23.97;;;16.23;;
23702;SDS011;12030;50.376;8.762;2023-02-10T00:52:26;23.43;;;14.87;;
23702;SDS011;12030;50.376;8.762;2023-02-10T00:54:51;26.30;;;15.30;;
23702;SDS011;12030;50.376;8.762;2023-02-10T00:57:17;25.83;;;15.57;;
23702;SDS011;12030;50.376;8.762;2023-02-10T00:59:42;24.27;;;15.73;;
23702;SDS011;12030;50.376;8.762;2023-02-10T01:02:08;22.93;;;15.80;;
23702;SDS011;12030;50.376;8.762;2023-02-10T01:04:34;25.60;;;15.67;;
23702;SDS011;12030;50.376;8.762;2023-02-10T01:07:00;23.80;;;14.40;;
23702;SDS011;12030;50.376;8.762;2023-02-10T01:09:25;24.53;;;14.07;;
23702;SDS011;12030;50.376;8.762;2023-02-10T01:11:51;24.77;;;14.60;;
23702;SDS011;12030;50.376;8.762;2023-02-10T01:14:16;26.03;;;15.27;;
23702;SDS011;12030;50.376;8.762;2023-02-10T01:16:42;28.30;;;15.43;;
23702;SDS011;12030;50.376;8.762;2023-02-10T01:19:08;25.97;;;17.07;;
23702;SDS011;12030;50.376;8.762;2023-02-10T01:21:34;32.50;;;17.53;;
23702;SDS011;12030;50.376;8.762;2023-02-10T01:24:01;25.17;;;16.20;;
23702;SDS011;12030;50.376;8.762;2023-02-10T01:26:27;26.60;;;17.10;;
23702;SDS011;12030;50.376;8.762;2023-02-10T01:28:53;23.73;;;15.37;;
23702;SDS011;12030;50.376;8.762;2023-02-10T01:31:19;28.13;;;16.87;;
23702;SDS011;12030;50.376;8.762;2023-02-10T01:33:46;25.40;;;16.50;;
23702;SDS011;12030;50.376;8.762;2023-02-10T01:36:15;29.43;;;17.17;;
23702;SDS011;12030;50.376;8.762;2023-02-10T01:38:43;25.60;;;16.53;;
23702;SDS011;12030;50.376;8.762;2023-02-10T01:41:10;27.90;;;17.43;;
23702;SDS011;12030;50.376;8.762;2023-02-10T01:46:40;27.60;;;16.87;;
23702;SDS011;12030;50.376;8.762;2023-02-10T01:49:07;29.07;;;17.70;;
23702;SDS011;12030;50.376;8.762;2023-02-10T01:51:46;25.20;;;16.80;;
23702;SDS011;12030;50.376;8.762;2023-02-10T01:54:17;27.83;;;17.17;;
23702;SDS011;12030;50.376;8.762;2023-02-10T01:56:46;30.53;;;17.40;;
23702;SDS011;12030;50.376;8.762;2023-02-10T01:59:13;30.87;;;18.40;;
23702;SDS011;12030;50.376;8.762;2023-02-10T02:01:39;27.90;;;18.47;;
23702;SDS011;12030;50.376;8.762;2023-02-10T02:04:05;28.43;;;18.43;;
23702;SDS011;12030;50.376;8.762;2023-02-10T02:06:31;30.03;;;19.10;;
23702;SDS011;12030;50.376;8.762;2023-02-10T02:08:58;30.90;;;19.27;;
23702;SDS011;12030;50.376;8.762;2023-02-10T02:11:26;27.13;;;17.40;;
23702;SDS011;12030;50.376;8.762;2023-02-10T02:19:40;27.47;;;17.17;;
23702;SDS011;12030;50.376;8.762;2023-02-10T02:25:57;30.03;;;18.00;;
23702;SDS011;12030;50.376;8.762;2023-02-10T02:31:36;28.03;;;18.47;;
23702;SDS011;12030;50.376;8.762;2023-02-10T02:34:09;32.80;;;18.30;;
23702;SDS011;12030;50.376;8.762;2023-02-10T02:36:40;27.13;;;18.77;;
23702;SDS011;12030;50.376;8.762;2023-02-10T02:39:11;31.23;;;19.37;;
23702;SDS011;12030;50.376;8.762;2023-02-10T02:41:37;32.10;;;18.80;;
23702;SDS011;12030;50.376;8.762;2023-02-10T02:44:02;30.60;;;20.43;;
23702;SDS011;12030;50.376;8.762;2023-02-10T02:52:22;32.23;;;20.07;;
23702;SDS011;12030;50.376;8.762;2023-02-10T02:55:01;36.37;;;20.33;;
23702;SDS011;12030;50.376;8.762;2023-02-10T03:00:14;28.67;;;19.97;;
23702;SDS011;12030;50.376;8.762;2023-02-10T03:02:43;36.03;;;19.97;;
23702;SDS011;12030;50.376;8.762;2023-02-10T03:05:10;30.47;;;20.37;;
23702;SDS011;12030;50.376;8.762;2023-02-10T03:07:41;36.63;;;21.23;;
23702;SDS011;12030;50.376;8.762;2023-02-10T03:10:07;35.23;;;20.83;;
23702;SDS011;12030;50.376;8.762;2023-02-10T03:12:32;31.57;;;20.93;;
23702;SDS011;12030;50.376;8.762;2023-02-10T03:14:58;34.77;;;21.53;;
23702;SDS011;12030;50.376;8.762;2023-02-10T03:17:23;33.23;;;21.10;;
23702;SDS011;12030;50.376;8.762;2023-02-10T03:19:49;32.17;;;21.07;;
23702;SDS011;12030;50.376;8.762;2023-02-10T03:22:14;37.40;;;21.90;;
23702;SDS011;12030;50.376;8.762;2023-02-10T03:24:40;39.77;;;24.53;;
23702;SDS011;12030;50.376;8.762;2023-02-10T03:27:05;40.00;;;25.83;;
23702;SDS011;12030;50.376;8.762;2023-02-10T03:29:31;48.33;;;28.47;;
23702;SDS011;12030;50.376;8.762;2023-02-10T03:31:57;37.93;;;24.27;;
23702;SDS011;12030;50.376;8.762;2023-02-10T03:34:26;40.00;;;25.00;;
23702;SDS011;12030;50.376;8.762;2023-02-10T03:36:52;35.67;;;23.47;;
23702;SDS011;12030;50.376;8.762;2023-02-10T03:39:18;34.70;;;22.83;;
23702;SDS011;12030;50.376;8.762;2023-02-10T03:41:43;34.77;;;22.50;;
23702;SDS011;12030;50.376;8.762;2023-02-10T03:44:09;36.40;;;22.00;;
23702;SDS011;12030;50.376;8.762;2023-02-10T03:46:34;34.43;;;23.30;;
23702;SDS011;12030;50.376;8.762;2023-02-10T03:49:01;36.37;;;22.67;;
23702;SDS011;12030;50.376;8.762;2023-02-10T03:51:28;34.67;;;22.33;;
23702;SDS011;12030;50.376;8.762;2023-02-10T03:53:53;36.83;;;23.50;;
23702;SDS011;12030;50.376;8.762;2023-02-10T03:56:19;32.70;;;22.07;;
23702;SDS011;12030;50.376;8.762;2023-02-10T03:58:45;34.53;;;22.23;;
23702;SDS011;12030;50.376;8.762;2023-02-10T04:01:11;35.40;;;22.13;;
23702;SDS011;12030;50.376;8.762;2023-02-10T04:03:39;34.00;;;22.00;;
23702;SDS011;12030;50.376;8.762;2023-02-10T04:06:04;33.90;;;23.37;;
23702;SDS011;12030;50.376;8.762;2023-02-10T04:08:30;37.40;;;23.17;;
23702;SDS011;12030;50.376;8.762;2023-02-10T04:10:56;35.57;;;23.23;;
23702;SDS011;12030;50.376;8.762;2023-02-10T04:13:21;35.33;;;21.10;;
23702;SDS011;12030;50.376;8.762;2023-02-10T04:15:47;35.77;;;22.73;;
23702;SDS011;12030;50.376;8.762;2023-02-10T04:18:13;35.57;;;23.50;;
23702;SDS011;12030;50.376;8.762;2023-02-10T04:20:38;32.53;;;22.47;;
23702;SDS011;12030;50.376;8.762;2023-02-10T04:23:04;34.13;;;23.07;;
23702;SDS011;12030;50.376;8.762;2023-02-10T04:25:29;35.23;;;23.07;;
23702;SDS011;12030;50.376;8.762;2023-02-10T04:27:55;36.60;;;23.47;;
23702;SDS011;12030;50.376;8.762;2023-02-10T04:30:20;33.93;;;22.27;;
23702;SDS011;12030;50.376;8.762;2023-02-10T04:32:46;36.23;;;23.53;;
23702;SDS011;12030;50.376;8.762;2023-02-10T04:35:11;34.13;;;23.00;;
23702;SDS011;12030;50.376;8.762;2023-02-10T04:37:37;37.70;;;23.20;;
23702;SDS011;12030;50.376;8.762;2023-02-10T04:40:03;34.93;;;23.43;;
23702;SDS011;12030;50.376;8.762;2023-02-10T04:42:28;35.87;;;23.10;;
23702;SDS011;12030;50.376;8.762;2023-02-10T04:44:57;32.40;;;22.27;;
23702;SDS011;12030;50.376;8.762;2023-02-10T04:47:27;35.40;;;22.53;;
23702;SDS011;12030;50.376;8.762;2023-02-10T04:49:53;37.53;;;23.13;;
23702;SDS011;12030;50.376;8.762;2023-02-10T04:52:19;33.23;;;23.23;;
23702;SDS011;12030;50.376;8.762;2023-02-10T04:54:44;34.27;;;23.03;;
23702;SDS011;12030;50.376;8.762;2023-02-10T04:57:11;38.77;;;22.87;;
23702;SDS011;12030;50.376;8.762;2023-02-10T04:59:36;34.63;;;23.40;;
23702;SDS011;12030;50.376;8.762;2023-02-10T05:02:02;33.37;;;22.83;;
23702;SDS011;12030;50.376;8.762;2023-02-10T05:04:28;33.80;;;22.50;;
23702;SDS011;12030;50.376;8.762;2023-02-10T05:06:53;36.00;;;23.70;;
23702;SDS011;12030;50.376;8.762;2023-02-10T05:09:23;32.03;;;21.83;;
23702;SDS011;12030;50.376;8.762;2023-02-10T05:11:49;36.20;;;23.33;;
23702;SDS011;12030;50.376;8.762;2023-02-10T05:14:15;37.20;;;24.17;;
23702;SDS011;12030;50.376;8.762;2023-02-10T05:16:40;40.63;;;24.53;;
23702;SDS011;12030;50.376;8.762;2023-02-10T05:19:06;34.90;;;22.93;;
23702;SDS011;12030;50.376;8.762;2023-02-10T05:21:31;33.77;;;22.50;;
23702;SDS011;12030;50.376;8.762;2023-02-10T05:23:57;40.43;;;23.43;;
23702;SDS011;12030;50.376;8.762;2023-02-10T05:26:23;39.47;;;23.87;;
23702;SDS011;12030;50.376;8.762;2023-02-10T05:28:49;36.33;;;23.83;;
23702;SDS011;12030;50.376;8.762;2023-02-10T05:31:14;33.00;;;22.50;;
23702;SDS011;12030;50.376;8.762;2023-02-10T05:33:40;34.27;;;23.47;;
23702;SDS011;12030;50.376;8.762;2023-02-10T05:36:05;37.87;;;23.33;;
23702;SDS011;12030;50.376;8.762;2023-02-10T05:38:32;37.37;;;23.70;;
23702;SDS011;12030;50.376;8.762;2023-02-10T05:40:58;35.50;;;22.97;;
23702;SDS011;12030;50.376;8.762;2023-02-10T05:43:23;38.80;;;23.97;;
23702;SDS011;12030;50.376;8.762;2023-02-10T05:45:49;36.50;;;22.67;;
23702;SDS011;12030;50.376;8.762;2023-02-10T05:48:15;36.27;;;22.80;;
23702;SDS011;12030;50.376;8.762;2023-02-10T05:50:40;36.20;;;22.90;;
23702;SDS011;12030;50.376;8.762;2023-02-10T05:53:06;35.07;;;22.83;;
23702;SDS011;12030;50.376;8.762;2023-02-10T05:55:32;35.90;;;23.73;;
23702;SDS011;12030;50.376;8.762;2023-02-10T05:57:58;33.60;;;22.87;;
23702;SDS011;12030;50.376;8.762;2023-02-10T06:00:23;34.47;;;23.00;;
23702;SDS011;12030;50.376;8.762;2023-02-10T06:02:49;36.37;;;23.20;;
23702;SDS011;12030;50.376;8.762;2023-02-10T06:05:15;31.20;;;23.27;;
23702;SDS011;12030;50.376;8.762;2023-02-10T06:07:40;33.60;;;22.73;;
23702;SDS011;12030;50.376;8.762;2023-02-10T06:10:06;36.93;;;23.20;;
23702;SDS011;12030;50.376;8.762;2023-02-10T06:12:32;35.13;;;22.70;;
23702;SDS011;12030;50.376;8.762;2023-02-10T06:14:57;35.77;;;23.10;;
23702;SDS011;12030;50.376;8.762;2023-02-10T06:17:23;31.30;;;21.77;;
23702;SDS011;12030;50.376;8.762;2023-02-10T06:19:50;43.47;;;23.40;;
23702;SDS011;12030;50.376;8.762;2023-02-10T06:22:16;38.23;;;23.40;;
23702;SDS011;12030;50.376;8.762;2023-02-10T06:24:42;33.27;;;22.73;;
23702;SDS011;12030;50.376;8.762;2023-02-10T06:27:07;38.57;;;24.97;;
23702;SDS011;12030;50.376;8.762;2023-02-10T06:29:33;32.23;;;22.37;;
23702;SDS011;12030;50.376;8.762;2023-02-10T06:31:58;34.67;;;23.07;;
23702;SDS011;12030;50.376;8.762;2023-02-10T06:34:24;31.30;;;22.53;;
23702;SDS011;12030;50.376;8.762;2023-02-10T06:36:49;36.40;;;21.77;;
23702;SDS011;12030;50.376;8.762;2023-02-10T06:39:15;36.83;;;23.83;;
23702;SDS011;12030;50.376;8.762;2023-02-10T06:41:40;33.20;;;21.63;;
23702;SDS011;12030;50.376;8.762;2023-02-10T06:44:07;35.17;;;22.40;;
23702;SDS011;12030;50.376;8.762;2023-02-10T06:46:33;32.70;;;22.27;;
23702;SDS011;12030;50.376;8.762;2023-02-10T06:48:59;34.67;;;21.67;;
23702;SDS011;12030;50.376;8.762;2023-02-10T06:51:26;35.33;;;24.33;;
23702;SDS011;12030;50.376;8.762;2023-02-10T06:53:52;33.67;;;23.50;;
23702;SDS011;12030;50.376;8.762;2023-02-10T06:56:17;37.43;;;22.93;;
23702;SDS011;12030;50.376;8.762;2023-02-10T06:58:43;31.80;;;21.90;;
23702;SDS011;12030;50.376;8.762;2023-02-10T07:01:10;35.97;;;22.77;;
23702;SDS011;12030;50.376;8.762;2023-02-10T07:03:37;37.90;;;23.37;;
23702;SDS011;12030;50.376;8.762;2023-02-10T07:06:03;34.80;;;22.67;;
23702;SDS011;12030;50.376;8.762;2023-02-10T07:08:30;37.77;;;23.73;;
23702;SDS011;12030;50.376;8.762;2023-02-10T07:10:56;36.43;;;22.97;;
23702;SDS011;12030;50.376;8.762;2023-02-10T07:13:21;35.30;;;22.23;;
23702;SDS011;12030;50.376;8.762;2023-02-10T07:15:47;36.00;;;22.77;;
23702;SDS011;12030;50.376;8.762;2023-02-10T07:18:12;39.67;;;24.20;;
23702;SDS011;12030;50.376;8.762;2023-02-10T07:20:38;38.77;;;24.37;;
23702;SDS011;12030;50.376;8.762;2023-02-10T07:23:04;39.53;;;23.97;;
23702;SDS011;12030;50.376;8.762;2023-02-10T07:25:30;36.07;;;23.50;;
23702;SDS011;12030;50.376;8.762;2023-02-10T07:27:55;35.77;;;22.63;;
23702;SDS011;12030;50.376;8.762;2023-02-10T07:30:21;37.93;;;23.67;;
23702;SDS011;12030;50.376;8.762;2023-02-10T07:32:46;33.90;;;22.90;;
23702;SDS011;12030;50.376;8.762;2023-02-10T07:35:12;34.20;;;22.87;;
23702;SDS011;12030;50.376;8.762;2023-02-10T07:37:37;41.03;;;24.87;;
23702;SDS011;12030;50.376;8.762;2023-02-10T07:40:04;45.80;;;26.63;;
23702;SDS011;12030;50.376;8.762;2023-02-10T07:42:30;40.43;;;25.13;;
23702;SDS011;12030;50.376;8.762;2023-02-10T07:44:56;37.90;;;23.83;;
23702;SDS011;12030;50.376;8.762;2023-02-10T07:47:22;32.10;;;22.23;;
23702;SDS011;12030;50.376;8.762;2023-02-10T07:49:48;32.93;;;22.50;;
23702;SDS011;12030;50.376;8.762;2023-02-10T07:52:13;33.47;;;22.67;;
23702;SDS011;12030;50.376;8.762;2023-02-10T07:54:39;36.53;;;24.13;;
23702;SDS011;12030;50.376;8.762;2023-02-10T07:57:04;39.30;;;23.50;;
23702;SDS011;12030;50.376;8.762;2023-02-10T07:59:30;33.90;;;23.33;;
23702;SDS011;12030;50.376;8.762;2023-02-10T08:01:56;33.53;;;23.13;;
23702;SDS011;12030;50.376;8.762;2023-02-10T08:04:21;34.17;;;22.23;;
23702;SDS011;12030;50.376;8.762;2023-02-10T08:06:46;33.13;;;22.33;;
23702;SDS011;12030;50.376;8.762;2023-02-10T08:09:12;32.93;;;23.27;;
23702;SDS011;12030;50.376;8.762;2023-02-10T08:11:42;29.97;;;21.90;;
23702;SDS011;12030;50.376;8.762;2023-02-10T08:14:07;34.83;;;23.00;;
23702;SDS011;12030;50.376;8.762;2023-02-10T08:16:33;33.17;;;22.87;;
23702;SDS011;12030;50.376;8.762;2023-02-10T08:18:59;35.43;;;22.70;;
23702;SDS011;12030;50.376;8.762;2023-02-10T08:21:24;32.50;;;22.63;;
23702;SDS011;12030;50.376;8.762;2023-02-10T08:23:51;33.37;;;22.77;;
23702;SDS011;12030;50.376;8.762;2023-02-10T08:26:20;34.33;;;24.23;;
23702;SDS011;12030;50.376;8.762;2023-02-10T08:28:47;34.17;;;23.07;;
23702;SDS011;12030;50.376;8.762;2023-02-10T08:31:12;35.73;;;24.40;;
23702;SDS011;12030;50.376;8.762;2023-02-10T08:33:38;35.43;;;22.77;;
23702;SDS011;12030;50.376;8.762;2023-02-10T08:36:04;33.70;;;23.00;;
23702;SDS011;12030;50.376;8.762;2023-02-10T08:38:31;34.60;;;23.47;;
23702;SDS011;12030;50.376;8.762;2023-02-10T08:40:58;31.67;;;21.77;;
23702;SDS011;12030;50.376;8.762;2023-02-10T08:43:24;33.40;;;22.80;;
23702;SDS011;12030;50.376;8.762;2023-02-10T08:45:50;33.70;;;22.17;;
23702;SDS011;12030;50.376;8.762;2023-02-10T08:48:16;32.20;;;23.17;;
23702;SDS011;12030;50.376;8.762;2023-02-10T08:50:42;34.03;;;22.77;;
23702;SDS011;12030;50.376;8.762;2023-02-10T08:53:08;33.40;;;24.00;;
23702;SDS011;12030;50.376;8.762;2023-02-10T08:55:35;37.13;;;23.93;;
23702;SDS011;12030;50.376;8.762;2023-02-10T08:58:00;31.47;;;21.90;;
23702;SDS011;12030;50.376;8.762;2023-02-10T09:00:26;31.37;;;22.73;;
23702;SDS011;12030;50.376;8.762;2023-02-10T09:02:51;34.87;;;23.77;;
23702;SDS011;12030;50.376;8.762;2023-02-10T09:05:17;31.00;;;22.03;;
23702;SDS011;12030;50.376;8.762;2023-02-10T09:07:44;34.63;;;23.30;;
23702;SDS011;12030;50.376;8.762;2023-02-10T09:10:10;32.97;;;21.93;;
23702;SDS011;12030;50.376;8.762;2023-02-10T09:12:36;32.60;;;22.70;;
23702;SDS011;12030;50.376;8.762;2023-02-10T09:15:03;33.17;;;23.57;;
23702;SDS011;12030;50.376;8.762;2023-02-10T09:17:29;35.47;;;23.67;;
23702;SDS011;12030;50.376;8.762;2023-02-10T09:19:55;35.13;;;23.03;;
23702;SDS011;12030;50.376;8.762;2023-02-10T09:22:20;31.07;;;22.60;;
23702;SDS011;12030;50.376;8.762;2023-02-10T09:24:46;35.43;;;22.97;;
23702;SDS011;12030;50.376;8.762;2023-02-10T09:27:13;34.07;;;22.33;;
23702;SDS011;12030;50.376;8.762;2023-02-10T09:29:39;34.70;;;23.83;;
23702;SDS011;12030;50.376;8.762;2023-02-10T09:32:05;33.97;;;23.20;;
23702;SDS011;12030;50.376;8.762;2023-02-10T09:34:31;31.40;;;23.03;;
23702;SDS011;12030;50.376;8.762;2023-02-10T09:36:56;33.77;;;23.53;;
23702;SDS011;12030;50.376;8.762;2023-02-10T09:39:25;34.13;;;23.60;;
23702;SDS011;12030;50.376;8.762;2023-02-10T09:41:57;31.43;;;22.53;;
23702;SDS011;12030;50.376;8.762;2023-02-10T09:44:33;34.00;;;24.33;;
23702;SDS011;12030;50.376;8.762;2023-02-10T09:55:34;33.73;;;22.77;;
23702;SDS011;12030;50.376;8.762;2023-02-10T09:58:20;36.77;;;24.33;;
23702;SDS011;12030;50.376;8.762;2023-02-10T10:00:56;36.40;;;24.77;;
23702;SDS011;12030;50.376;8.762;2023-02-10T10:03:27;35.17;;;23.87;;
23702;SDS011;12030;50.376;8.762;2023-02-10T10:13:46;36.93;;;24.40;;
23702;SDS011;12030;50.376;8.762;2023-02-10T10:16:19;33.03;;;24.20;;
23702;SDS011;12030;50.376;8.762;2023-02-10T10:21:52;35.13;;;25.23;;
23702;SDS011;12030;50.376;8.762;2023-02-10T10:24:41;34.60;;;24.60;;
23702;SDS011;12030;50.376;8.762;2023-02-10T10:30:20;34.37;;;23.30;;
23702;SDS011;12030;50.376;8.762;2023-02-10T10:33:49;35.10;;;23.80;;
23702;SDS011;12030;50.376;8.762;2023-02-10T10:36:01;34.73;;;24.87;;
23702;SDS011;12030;50.376;8.762;2023-02-10T10:38:31;34.17;;;24.47;;
23702;SDS011;12030;50.376;8.762;2023-02-10T10:41:02;39.03;;;25.20;;
23702;SDS011;12030;50.376;8.762;2023-02-10T10:43:32;33.30;;;25.00;;
23702;SDS011;12030;50.376;8.762;2023-02-10T10:46:09;33.13;;;24.60;;
23702;SDS011;12030;50.376;8.762;2023-02-10T10:48:48;37.83;;;25.50;;
23702;SDS011;12030;50.376;8.762;2023-02-10T10:51:14;35.20;;;24.87;;
23702;SDS011;12030;50.376;8.762;2023-02-10T10:53:41;36.00;;;24.97;;
23702;SDS011;12030;50.376;8.762;2023-02-10T10:56:14;36.23;;;25.17;;
23702;SDS011;12030;50.376;8.762;2023-02-10T10:58:48;34.23;;;25.70;;
23702;SDS011;12030;50.376;8.762;2023-02-10T11:01:15;32.63;;;25.33;;
23702;SDS011;12030;50.376;8.762;2023-02-10T11:03:42;33.40;;;24.17;;
23702;SDS011;12030;50.376;8.762;2023-02-10T11:06:09;35.73;;;25.20;;
23702;SDS011;12030;50.376;8.762;2023-02-10T11:11:07;33.87;;;24.93;;
23702;SDS011;12030;50.376;8.762;2023-02-10T11:13:36;34.53;;;24.30;;
23702;SDS011;12030;50.376;8.762;2023-02-10T11:16:09;35.87;;;24.60;;
23702;SDS011;12030;50.376;8.762;2023-02-10T11:18:50;36.67;;;26.40;;
23702;SDS011;12030;50.376;8.762;2023-02-10T11:21:33;34.17;;;25.90;;
23702;SDS011;12030;50.376;8.762;2023-02-10T11:26:58;35.90;;;25.47;;
23702;SDS011;12030;50.376;8.762;2023-02-10T11:29:26;32.47;;;24.53;;
23702;SDS011;12030;50.376;8.762;2023-02-10T11:31:54;32.73;;;24.17;;
23702;SDS011;12030;50.376;8.762;2023-02-10T11:34:28;36.37;;;26.70;;
23702;SDS011;12030;50.376;8.762;2023-02-10T11:37:12;35.73;;;25.17;;
23702;SDS011;12030;50.376;8.762;2023-02-10T11:39:44;34.83;;;25.37;;
23702;SDS011;12030;50.376;8.762;2023-02-10T11:45:01;37.07;;;26.03;;
23702;SDS011;12030;50.376;8.762;2023-02-10T11:47:47;33.57;;;24.33;;
23702;SDS011;12030;50.376;8.762;2023-02-10T11:50:24;33.67;;;25.63;;
23702;SDS011;12030;50.376;8.762;2023-02-10T11:52:52;33.63;;;24.57;;
23702;SDS011;12030;50.376;8.762;2023-02-10T11:55:18;31.77;;;24.37;;
23702;SDS011;12030;50.376;8.762;2023-02-10T11:57:58;36.87;;;24.93;;
23702;SDS011;12030;50.376;8.762;2023-02-10T12:01:06;36.30;;;25.23;;
23702;SDS011;12030;50.376;8.762;2023-02-10T12:03:41;33.00;;;24.93;;
23702;SDS011;12030;50.376;8.762;2023-02-10T12:06:30;35.63;;;25.33;;
23702;SDS011;12030;50.376;8.762;2023-02-10T12:15:02;35.80;;;25.50;;
23702;SDS011;12030;50.376;8.762;2023-02-10T12:29:02;34.20;;;25.07;;
23702;SDS011;12030;50.376;8.762;2023-02-10T12:31:53;33.33;;;24.57;;
23702;SDS011;12030;50.376;8.762;2023-02-10T12:39:55;31.37;;;24.70;;
23702;SDS011;12030;50.376;8.762;2023-02-10T12:42:55;36.13;;;25.80;;
23702;SDS011;12030;50.376;8.762;2023-02-10T12:45:28;35.70;;;26.07;;
23702;SDS011;12030;50.376;8.762;2023-02-10T12:51:06;29.37;;;25.47;;
23702;SDS011;12030;50.376;8.762;2023-02-10T12:53:36;30.17;;;24.33;;
23702;SDS011;12030;50.376;8.762;2023-02-10T12:56:18;31.87;;;24.40;;
23702;SDS011;12030;50.376;8.762;2023-02-10T12:59:00;35.80;;;24.83;;
23702;SDS011;12030;50.376;8.762;2023-02-10T13:01:35;29.47;;;22.77;;
23702;SDS011;12030;50.376;8.762;2023-02-10T13:06:40;30.10;;;23.60;;
23702;SDS011;12030;50.376;8.762;2023-02-10T13:12:11;32.63;;;23.93;;
23702;SDS011;12030;50.376;8.762;2023-02-10T13:14:51;31.13;;;22.77;;
23702;SDS011;12030;50.376;8.762;2023-02-10T13:17:24;27.63;;;23.07;;
23702;SDS011;12030;50.376;8.762;2023-02-10T13:20:04;28.07;;;22.43;;
23702;SDS011;12030;50.376;8.762;2023-02-10T13:25:25;27.30;;;22.40;;
23702;SDS011;12030;50.376;8.762;2023-02-10T13:30:59;30.87;;;24.17;;
23702;SDS011;12030;50.376;8.762;2023-02-10T13:36:29;27.37;;;21.73;;
23702;SDS011;12030;50.376;8.762;2023-02-10T13:39:00;27.40;;;23.75;;
23702;SDS011;12030;50.376;8.762;2023-02-10T13:41:38;25.83;;;21.67;;
23702;SDS011;12030;50.376;8.762;2023-02-10T13:44:14;26.10;;;22.80;;
23702;SDS011;12030;50.376;8.762;2023-02-10T13:49:34;26.90;;;22.30;;
23702;SDS011;12030;50.376;8.762;2023-02-10T13:52:23;23.87;;;20.70;;
23702;SDS011;12030;50.376;8.762;2023-02-10T13:54:57;25.23;;;21.00;;
23702;SDS011;12030;50.376;8.762;2023-02-10T14:00:22;25.83;;;22.40;;
23702;SDS011;12030;50.376;8.762;2023-02-10T14:05:54;27.80;;;21.67;;
23702;SDS011;12030;50.376;8.762;2023-02-10T14:08:30;27.57;;;22.17;;
23702;SDS011;12030;50.376;8.762;2023-02-10T14:13:38;27.97;;;22.67;;
23702;SDS011;12030;50.376;8.762;2023-02-10T14:16:27;27.53;;;23.17;;
23702;SDS011;12030;50.376;8.762;2023-02-10T14:19:00;28.07;;;22.33;;
23702;SDS011;12030;50.376;8.762;2023-02-10T14:21:28;27.50;;;22.13;;
23702;SDS011;12030;50.376;8.762;2023-02-10T14:24:05;27.03;;;22.53;;
23702;SDS011;12030;50.376;8.762;2023-02-10T14:26:39;28.80;;;22.77;;
23702;SDS011;12030;50.376;8.762;2023-02-10T14:29:12;30.43;;;22.87;;
23702;SDS011;12030;50.376;8.762;2023-02-10T14:31:40;28.93;;;23.57;;
23702;SDS011;12030;50.376;8.762;2023-02-10T14:39:20;29.10;;;22.23;;
23702;SDS011;12030;50.376;8.762;2023-02-10T14:41:50;27.50;;;22.13;;
23702;SDS011;12030;50.376;8.762;2023-02-10T14:44:26;33.17;;;23.00;;
23702;SDS011;12030;50.376;8.762;2023-02-10T14:46:58;29.07;;;22.60;;
23702;SDS011;12030;50.376;8.762;2023-02-10T14:49:23;25.00;;;21.93;;
23702;SDS011;12030;50.376;8.762;2023-02-10T14:51:50;25.93;;;22.03;;
23702;SDS011;12030;50.376;8.762;2023-02-10T14:54:20;29.93;;;23.00;;
23702;SDS011;12030;50.376;8.762;2023-02-10T14:56:55;27.90;;;22.73;;
23702;SDS011;12030;50.376;8.762;2023-02-10T14:59:23;28.23;;;22.47;;
23702;SDS011;12030;50.376;8.762;2023-02-10T15:01:53;29.03;;;22.97;;
23702;SDS011;12030;50.376;8.762;2023-02-10T15:04:20;28.67;;;23.33;;
23702;SDS011;12030;50.376;8.762;2023-02-10T15:06:50;27.23;;;22.17;;
23702;SDS011;12030;50.376;8.762;2023-02-10T15:09:19;26.13;;;22.27;;
23702;SDS011;12030;50.376;8.762;2023-02-10T15:11:58;30.10;;;22.93;;
23702;SDS011;12030;50.376;8.762;2023-02-10T15:14:40;31.20;;;23.23;;
23702;SDS011;12030;50.376;8.762;2023-02-10T15:17:14;27.97;;;22.53;;
23702;SDS011;12030;50.376;8.762;2023-02-10T15:19:51;26.77;;;22.10;;
23702;SDS011;12030;50.376;8.762;2023-02-10T15:22:42;27.87;;;22.40;;
23702;SDS011;12030;50.376;8.762;2023-02-10T15:25:57;29.60;;;22.97;;
23702;SDS011;12030;50.376;8.762;2023-02-10T15:38:40;28.60;;;22.20;;
23702;SDS011;12030;50.376;8.762;2023-02-10T15:46:47;27.63;;;22.13;;
23702;SDS011;12030;50.376;8.762;2023-02-10T15:49:15;28.27;;;22.77;;
23702;SDS011;12030;50.376;8.762;2023-02-10T15:51:50;27.17;;;22.47;;
23702;SDS011;12030;50.376;8.762;2023-02-10T15:54:22;30.93;;;23.83;;
23702;SDS011;12030;50.376;8.762;2023-02-10T15:57:02;29.40;;;23.33;;
23702;SDS011;12030;50.376;8.762;2023-02-10T15:59:30;27.70;;;23.33;;
23702;SDS011;12030;50.376;8.762;2023-02-10T16:01:56;30.43;;;24.13;;
23702;SDS011;12030;50.376;8.762;2023-02-10T16:04:23;29.77;;;22.80;;
23702;SDS011;12030;50.376;8.762;2023-02-10T16:06:49;31.20;;;24.27;;
23702;SDS011;12030;50.376;8.762;2023-02-10T16:09:15;28.97;;;22.53;;
23702;SDS011;12030;50.376;8.762;2023-02-10T16:11:41;28.33;;;23.23;;
23702;SDS011;12030;50.376;8.762;2023-02-10T16:14:06;30.37;;;23.60;;
23702;SDS011;12030;50.376;8.762;2023-02-10T16:16:32;31.27;;;24.33;;
23702;SDS011;12030;50.376;8.762;2023-02-10T16:19:08;28.60;;;23.77;;
23702;SDS011;12030;50.376;8.762;2023-02-10T16:21:36;30.80;;;23.30;;
23702;SDS011;12030;50.376;8.762;2023-02-10T16:24:01;27.73;;;22.67;;
23702;SDS011;12030;50.376;8.762;2023-02-10T16:26:28;29.97;;;23.53;;
23702;SDS011;12030;50.376;8.762;2023-02-10T16:28:54;33.77;;;23.73;;
23702;SDS011;12030;50.376;8.762;2023-02-10T16:31:20;29.57;;;22.60;;
23702;SDS011;12030;50.376;8.762;2023-02-10T16:33:46;30.87;;;23.00;;
23702;SDS011;12030;50.376;8.762;2023-02-10T16:36:12;27.43;;;22.90;;
23702;SDS011;12030;50.376;8.762;2023-02-10T16:38:40;34.30;;;23.90;;